sensor_id;sensor_type;location;lat;lon;timestamp;P1;durP1;ratioP1;P2;durP2;ratioP2
142;SDS011;63667;49.046;8.468;2023-12-20T00:00:12;18.50;;;8.40;;
142;SDS011;63667;49.046;8.468;2023-12-20T00:02:41;16.90;;;8.40;;
142;SDS011;63667;49.046;8.468;2023-12-20T00:05:13;18.43;;;8.70;;
142;SDS011;63667;49.046;8.468;2023-12-20T00:07:46;18.00;;;8.40;;
142;SDS011;63667;49.046;8.468;2023-12-20T00:10:15;22.67;;;9.67;;
142;SDS011;63667;49.046;8.468;2023-12-20T00:12:43;18.10;;;8.10;;
142;SDS011;63667;49.046;8.468;2023-12-20T00:15:11;15.37;;;8.50;;
142;SDS011;63667;49.046;8.468;2023-12-20T00:17:38;17.80;;;9.27;;
142;SDS011;63667;49.046;8.468;2023-12-20T00:20:06;16.53;;;9.00;;
142;SDS011;63667;49.046;8.468;2023-12-20T00:22:35;20.20;;;9.47;;
142;SDS011;63667;49.046;8.468;2023-12-20T00:25:02;14.73;;;8.03;;
142;SDS011;63667;49.046;8.468;2023-12-20T00:27:30;17.53;;;8.97;;
142;SDS011;63667;49.046;8.468;2023-12-20T00:29:58;19.87;;;8.27;;
142;SDS011;63667;49.046;8.468;2023-12-20T00:32:27;19.03;;;9.30;;
142;SDS011;63667;49.046;8.468;2023-12-20T00:34:55;15.67;;;8.20;;
142;SDS011;63667;49.046;8.468;2023-12-20T00:37:23;19.67;;;9.63;;
142;SDS011;63667;49.046;8.468;2023-12-20T00:39:51;13.03;;;7.00;;
142;SDS011;63667;49.046;8.468;2023-12-20T00:42:18;19.47;;;9.07;;
142;SDS011;63667;49.046;8.468;2023-12-20T00:44:46;17.67;;;8.43;;
142;SDS011;63667;49.046;8.468;2023-12-20T00:47:13;20.07;;;7.90;;
142;SDS011;63667;49.046;8.468;2023-12-20T00:49:39;15.27;;;7.70;;
142;SDS011;63667;49.046;8.468;2023-12-20T00:52:06;17.30;;;8.80;;
142;SDS011;63667;49.046;8.468;2023-12-20T00:54:32;16.13;;;7.93;;
142;SDS011;63667;49.046;8.468;2023-12-20T00:56:59;15.57;;;8.40;;
142;SDS011;63667;49.046;8.468;2023-12-20T00:59:28;15.87;;;8.27;;
142;SDS011;63667;49.046;8.468;2023-12-20T01:01:55;18.60;;;8.70;;
142;SDS011;63667;49.046;8.468;2023-12-20T01:04:21;14.13;;;7.03;;
142;SDS011;63667;49.046;8.468;2023-12-20T01:06:48;17.90;;;8.77;;
142;SDS011;63667;49.046;8.468;2023-12-20T01:09:16;18.30;;;8.60;;
142;SDS011;63667;49.046;8.468;2023-12-20T01:11:44;22.33;;;10.13;;
142;SDS011;63667;49.046;8.468;2023-12-20T01:14:12;16.57;;;8.63;;
142;SDS011;63667;49.046;8.468;2023-12-20T01:16:40;20.43;;;9.50;;
142;SDS011;63667;49.046;8.468;2023-12-20T01:19:07;21.17;;;9.80;;
142;SDS011;63667;49.046;8.468;2023-12-20T01:21:35;19.37;;;9.60;;
142;SDS011;63667;49.046;8.468;2023-12-20T01:24:03;17.37;;;9.37;;
142;SDS011;63667;49.046;8.468;2023-12-20T01:26:31;20.17;;;9.77;;
142;SDS011;63667;49.046;8.468;2023-12-20T01:28:59;20.80;;;10.07;;
142;SDS011;63667;49.046;8.468;2023-12-20T01:31:27;23.20;;;9.10;;
142;SDS011;63667;49.046;8.468;2023-12-20T01:33:54;20.87;;;9.80;;
142;SDS011;63667;49.046;8.468;2023-12-20T01:36:23;22.33;;;10.17;;
142;SDS011;63667;49.046;8.468;2023-12-20T01:38:50;18.93;;;9.63;;
142;SDS011;63667;49.046;8.468;2023-12-20T01:41:17;17.53;;;9.10;;
142;SDS011;63667;49.046;8.468;2023-12-20T01:43:45;24.37;;;9.90;;
142;SDS011;63667;49.046;8.468;2023-12-20T01:46:12;19.33;;;9.20;;
142;SDS011;63667;49.046;8.468;2023-12-20T01:48:40;18.10;;;9.43;;
142;SDS011;63667;49.046;8.468;2023-12-20T01:51:07;20.70;;;9.40;;
142;SDS011;63667;49.046;8.468;2023-12-20T01:53:35;19.17;;;9.67;;
142;SDS011;63667;49.046;8.468;2023-12-20T01:56:03;21.93;;;9.20;;
142;SDS011;63667;49.046;8.468;2023-12-20T01:58:32;17.50;;;9.10;;
142;SDS011;63667;49.046;8.468;2023-12-20T02:01:00;18.07;;;8.90;;
142;SDS011;63667;49.046;8.468;2023-12-20T02:03:28;18.10;;;9.07;;
142;SDS011;63667;49.046;8.468;2023-12-20T02:05:56;17.57;;;9.50;;
142;SDS011;63667;49.046;8.468;2023-12-20T02:08:23;18.90;;;9.23;;
142;SDS011;63667;49.046;8.468;2023-12-20T02:10:51;20.87;;;9.07;;
142;SDS011;63667;49.046;8.468;2023-12-20T02:13:18;15.27;;;8.57;;
142;SDS011;63667;49.046;8.468;2023-12-20T02:15:46;24.67;;;8.60;;
142;SDS011;63667;49.046;8.468;2023-12-20T02:18:14;19.33;;;8.40;;
142;SDS011;63667;49.046;8.468;2023-12-20T02:20:42;20.30;;;9.10;;
142;SDS011;63667;49.046;8.468;2023-12-20T02:23:11;16.50;;;8.47;;
142;SDS011;63667;49.046;8.468;2023-12-20T02:25:39;15.30;;;8.57;;
142;SDS011;63667;49.046;8.468;2023-12-20T02:28:06;18.60;;;9.33;;
142;SDS011;63667;49.046;8.468;2023-12-20T02:30:33;17.10;;;9.00;;
142;SDS011;63667;49.046;8.468;2023-12-20T02:33:02;21.93;;;9.33;;
142;SDS011;63667;49.046;8.468;2023-12-20T02:35:30;19.30;;;9.17;;
142;SDS011;63667;49.046;8.468;2023-12-20T02:37:58;18.30;;;9.03;;
142;SDS011;63667;49.046;8.468;2023-12-20T02:40:25;17.70;;;8.63;;
142;SDS011;63667;49.046;8.468;2023-12-20T02:42:53;16.77;;;8.80;;
142;SDS011;63667;49.046;8.468;2023-12-20T02:45:21;21.23;;;9.17;;
142;SDS011;63667;49.046;8.468;2023-12-20T02:47:48;19.27;;;9.13;;
142;SDS011;63667;49.046;8.468;2023-12-20T02:50:16;19.90;;;9.63;;
142;SDS011;63667;49.046;8.468;2023-12-20T02:52:44;21.83;;;9.03;;
142;SDS011;63667;49.046;8.468;2023-12-20T02:55:12;17.03;;;9.47;;
142;SDS011;63667;49.046;8.468;2023-12-20T02:57:39;17.40;;;9.33;;
142;SDS011;63667;49.046;8.468;2023-12-20T03:00:08;24.40;;;9.63;;
142;SDS011;63667;49.046;8.468;2023-12-20T03:02:36;20.47;;;9.83;;
142;SDS011;63667;49.046;8.468;2023-12-20T03:05:04;19.77;;;9.23;;
142;SDS011;63667;49.046;8.468;2023-12-20T03:07:32;18.37;;;8.20;;
142;SDS011;63667;49.046;8.468;2023-12-20T03:10:00;21.00;;;9.17;;
142;SDS011;63667;49.046;8.468;2023-12-20T03:12:32;18.10;;;8.87;;
142;SDS011;63667;49.046;8.468;2023-12-20T03:14:58;14.93;;;8.00;;
142;SDS011;63667;49.046;8.468;2023-12-20T03:17:25;17.30;;;8.17;;
142;SDS011;63667;49.046;8.468;2023-12-20T03:19:51;17.87;;;8.43;;
142;SDS011;63667;49.046;8.468;2023-12-20T03:22:18;17.67;;;8.83;;
142;SDS011;63667;49.046;8.468;2023-12-20T03:24:44;15.00;;;8.20;;
142;SDS011;63667;49.046;8.468;2023-12-20T03:27:11;18.17;;;7.97;;
142;SDS011;63667;49.046;8.468;2023-12-20T03:29:37;13.67;;;7.70;;
142;SDS011;63667;49.046;8.468;2023-12-20T03:32:05;15.90;;;8.10;;
142;SDS011;63667;49.046;8.468;2023-12-20T03:34:40;16.47;;;8.80;;
142;SDS011;63667;49.046;8.468;2023-12-20T03:37:07;20.20;;;7.90;;
142;SDS011;63667;49.046;8.468;2023-12-20T03:39:35;17.43;;;8.73;;
142;SDS011;63667;49.046;8.468;2023-12-20T03:42:03;13.00;;;7.30;;
142;SDS011;63667;49.046;8.468;2023-12-20T03:44:32;14.73;;;7.50;;
142;SDS011;63667;49.046;8.468;2023-12-20T03:46:58;14.47;;;7.90;;
142;SDS011;63667;49.046;8.468;2023-12-20T03:49:27;16.50;;;7.23;;
142;SDS011;63667;49.046;8.468;2023-12-20T03:52:00;15.53;;;7.63;;
142;SDS011;63667;49.046;8.468;2023-12-20T03:54:30;15.20;;;7.97;;
142;SDS011;63667;49.046;8.468;2023-12-20T03:56:57;15.07;;;6.50;;
142;SDS011;63667;49.046;8.468;2023-12-20T03:59:25;13.97;;;6.83;;
142;SDS011;63667;49.046;8.468;2023-12-20T04:01:52;12.93;;;7.00;;
142;SDS011;63667;49.046;8.468;2023-12-20T04:04:18;15.30;;;7.83;;
142;SDS011;63667;49.046;8.468;2023-12-20T04:06:45;14.30;;;7.17;;
142;SDS011;63667;49.046;8.468;2023-12-20T04:09:11;12.60;;;6.90;;
142;SDS011;63667;49.046;8.468;2023-12-20T04:11:38;14.60;;;7.60;;
142;SDS011;63667;49.046;8.468;2023-12-20T04:14:05;15.53;;;6.73;;
142;SDS011;63667;49.046;8.468;2023-12-20T04:16:32;11.00;;;6.30;;
142;SDS011;63667;49.046;8.468;2023-12-20T04:19:00;13.20;;;7.90;;
142;SDS011;63667;49.046;8.468;2023-12-20T04:21:28;15.60;;;8.20;;
142;SDS011;63667;49.046;8.468;2023-12-20T04:23:54;17.87;;;7.63;;
142;SDS011;63667;49.046;8.468;2023-12-20T04:26:23;14.27;;;7.23;;
142;SDS011;63667;49.046;8.468;2023-12-20T04:28:51;13.40;;;7.10;;
142;SDS011;63667;49.046;8.468;2023-12-20T04:31:19;13.47;;;7.67;;
142;SDS011;63667;49.046;8.468;2023-12-20T04:33:47;15.53;;;7.27;;
142;SDS011;63667;49.046;8.468;2023-12-20T04:36:13;12.50;;;7.07;;
142;SDS011;63667;49.046;8.468;2023-12-20T04:38:41;13.90;;;7.10;;
142;SDS011;63667;49.046;8.468;2023-12-20T04:41:10;15.30;;;7.40;;
142;SDS011;63667;49.046;8.468;2023-12-20T04:43:37;12.23;;;6.30;;
142;SDS011;63667;49.046;8.468;2023-12-20T04:46:05;15.83;;;7.57;;
142;SDS011;63667;49.046;8.468;2023-12-20T04:48:32;12.90;;;6.63;;
142;SDS011;63667;49.046;8.468;2023-12-20T04:51:00;16.03;;;7.50;;
142;SDS011;63667;49.046;8.468;2023-12-20T04:53:27;10.87;;;6.77;;
142;SDS011;63667;49.046;8.468;2023-12-20T04:55:54;13.30;;;6.90;;
142;SDS011;63667;49.046;8.468;2023-12-20T04:58:21;12.10;;;6.90;;
142;SDS011;63667;49.046;8.468;2023-12-20T05:00:49;12.67;;;7.07;;
142;SDS011;63667;49.046;8.468;2023-12-20T05:03:17;12.10;;;6.50;;
142;SDS011;63667;49.046;8.468;2023-12-20T05:05:45;14.03;;;7.23;;
142;SDS011;63667;49.046;8.468;2023-12-20T05:08:12;13.47;;;7.23;;
142;SDS011;63667;49.046;8.468;2023-12-20T05:10:39;14.40;;;7.40;;
142;SDS011;63667;49.046;8.468;2023-12-20T05:13:07;12.50;;;7.37;;
142;SDS011;63667;49.046;8.468;2023-12-20T05:15:35;20.93;;;7.97;;
142;SDS011;63667;49.046;8.468;2023-12-20T05:18:02;11.93;;;6.57;;
142;SDS011;63667;49.046;8.468;2023-12-20T05:20:30;11.53;;;7.07;;
142;SDS011;63667;49.046;8.468;2023-12-20T05:22:58;12.77;;;7.30;;
142;SDS011;63667;49.046;8.468;2023-12-20T05:25:25;15.80;;;7.97;;
142;SDS011;63667;49.046;8.468;2023-12-20T05:27:53;14.57;;;6.90;;
142;SDS011;63667;49.046;8.468;2023-12-20T05:30:22;13.60;;;7.30;;
142;SDS011;63667;49.046;8.468;2023-12-20T05:32:55;13.70;;;7.63;;
142;SDS011;63667;49.046;8.468;2023-12-20T05:35:25;16.23;;;7.60;;
142;SDS011;63667;49.046;8.468;2023-12-20T05:37:52;15.63;;;7.37;;
142;SDS011;63667;49.046;8.468;2023-12-20T05:40:18;15.70;;;6.63;;
142;SDS011;63667;49.046;8.468;2023-12-20T05:42:51;14.47;;;7.50;;
142;SDS011;63667;49.046;8.468;2023-12-20T05:45:21;16.00;;;7.63;;
142;SDS011;63667;49.046;8.468;2023-12-20T05:47:49;11.73;;;6.87;;
142;SDS011;63667;49.046;8.468;2023-12-20T05:50:16;16.30;;;7.60;;
142;SDS011;63667;49.046;8.468;2023-12-20T05:52:44;13.43;;;7.53;;
142;SDS011;63667;49.046;8.468;2023-12-20T05:55:11;14.53;;;7.73;;
142;SDS011;63667;49.046;8.468;2023-12-20T05:57:39;14.03;;;7.57;;
142;SDS011;63667;49.046;8.468;2023-12-20T06:00:09;14.93;;;6.87;;
142;SDS011;63667;49.046;8.468;2023-12-20T06:02:38;13.50;;;7.00;;
142;SDS011;63667;49.046;8.468;2023-12-20T06:05:06;13.73;;;7.30;;
142;SDS011;63667;49.046;8.468;2023-12-20T06:07:33;13.77;;;7.70;;
142;SDS011;63667;49.046;8.468;2023-12-20T06:09:59;17.17;;;8.23;;
142;SDS011;63667;49.046;8.468;2023-12-20T06:12:28;12.90;;;7.07;;
142;SDS011;63667;49.046;8.468;2023-12-20T06:14:57;13.40;;;8.10;;
142;SDS011;63667;49.046;8.468;2023-12-20T06:17:25;12.10;;;7.33;;
142;SDS011;63667;49.046;8.468;2023-12-20T06:19:56;11.77;;;7.20;;
142;SDS011;63667;49.046;8.468;2023-12-20T06:22:24;12.60;;;7.37;;
142;SDS011;63667;49.046;8.468;2023-12-20T06:24:54;17.20;;;7.60;;
142;SDS011;63667;49.046;8.468;2023-12-20T06:27:21;14.30;;;7.70;;
142;SDS011;63667;49.046;8.468;2023-12-20T06:29:50;15.10;;;8.13;;
142;SDS011;63667;49.046;8.468;2023-12-20T06:32:17;12.33;;;7.17;;
142;SDS011;63667;49.046;8.468;2023-12-20T06:34:45;12.30;;;7.03;;
142;SDS011;63667;49.046;8.468;2023-12-20T06:37:11;16.80;;;8.30;;
142;SDS011;63667;49.046;8.468;2023-12-20T06:39:38;16.40;;;8.53;;
142;SDS011;63667;49.046;8.468;2023-12-20T06:42:04;17.87;;;9.77;;
142;SDS011;63667;49.046;8.468;2023-12-20T06:44:31;18.60;;;10.27;;
142;SDS011;63667;49.046;8.468;2023-12-20T06:46:58;17.40;;;10.17;;
142;SDS011;63667;49.046;8.468;2023-12-20T06:49:33;18.23;;;9.67;;
142;SDS011;63667;49.046;8.468;2023-12-20T06:54:53;16.27;;;9.63;;
142;SDS011;63667;49.046;8.468;2023-12-20T06:57:21;16.20;;;7.60;;
142;SDS011;63667;49.046;8.468;2023-12-20T06:59:48;13.50;;;7.60;;
142;SDS011;63667;49.046;8.468;2023-12-20T07:02:15;17.57;;;9.60;;
142;SDS011;63667;49.046;8.468;2023-12-20T07:04:43;15.30;;;8.50;;
142;SDS011;63667;49.046;8.468;2023-12-20T07:07:10;16.60;;;8.27;;
142;SDS011;63667;49.046;8.468;2023-12-20T07:09:39;13.27;;;7.23;;
142;SDS011;63667;49.046;8.468;2023-12-20T07:12:08;14.30;;;9.00;;
142;SDS011;63667;49.046;8.468;2023-12-20T07:14:36;15.97;;;8.93;;
142;SDS011;63667;49.046;8.468;2023-12-20T07:17:05;13.77;;;7.70;;
142;SDS011;63667;49.046;8.468;2023-12-20T07:19:37;14.97;;;8.03;;
142;SDS011;63667;49.046;8.468;2023-12-20T07:22:05;17.00;;;9.07;;
142;SDS011;63667;49.046;8.468;2023-12-20T07:24:34;16.10;;;9.07;;
142;SDS011;63667;49.046;8.468;2023-12-20T07:27:01;17.87;;;8.67;;
142;SDS011;63667;49.046;8.468;2023-12-20T07:29:28;17.50;;;9.43;;
142;SDS011;63667;49.046;8.468;2023-12-20T07:31:56;18.10;;;9.60;;
142;SDS011;63667;49.046;8.468;2023-12-20T07:34:24;20.27;;;10.33;;
142;SDS011;63667;49.046;8.468;2023-12-20T07:36:52;26.80;;;13.90;;
142;SDS011;63667;49.046;8.468;2023-12-20T07:39:20;17.70;;;10.67;;
142;SDS011;63667;49.046;8.468;2023-12-20T07:41:48;20.70;;;9.00;;
142;SDS011;63667;49.046;8.468;2023-12-20T07:44:15;16.00;;;8.67;;
142;SDS011;63667;49.046;8.468;2023-12-20T07:46:42;15.30;;;7.30;;
142;SDS011;63667;49.046;8.468;2023-12-20T07:49:10;17.40;;;9.27;;
142;SDS011;63667;49.046;8.468;2023-12-20T07:51:38;13.60;;;8.10;;
142;SDS011;63667;49.046;8.468;2023-12-20T07:54:06;14.93;;;9.00;;
142;SDS011;63667;49.046;8.468;2023-12-20T07:56:34;18.80;;;9.37;;
142;SDS011;63667;49.046;8.468;2023-12-20T07:59:00;16.70;;;8.43;;
142;SDS011;63667;49.046;8.468;2023-12-20T08:01:46;16.20;;;8.17;;
142;SDS011;63667;49.046;8.468;2023-12-20T08:04:12;14.40;;;8.17;;
142;SDS011;63667;49.046;8.468;2023-12-20T08:06:38;15.80;;;8.33;;
142;SDS011;63667;49.046;8.468;2023-12-20T08:09:05;14.30;;;8.50;;
142;SDS011;63667;49.046;8.468;2023-12-20T08:11:31;14.60;;;8.60;;
142;SDS011;63667;49.046;8.468;2023-12-20T08:13:58;18.53;;;7.73;;
142;SDS011;63667;49.046;8.468;2023-12-20T08:16:24;16.23;;;8.00;;
142;SDS011;63667;49.046;8.468;2023-12-20T08:18:51;14.87;;;8.10;;
142;SDS011;63667;49.046;8.468;2023-12-20T08:21:17;16.77;;;8.90;;
142;SDS011;63667;49.046;8.468;2023-12-20T08:23:46;17.13;;;9.07;;
142;SDS011;63667;49.046;8.468;2023-12-20T08:26:13;14.90;;;7.37;;
142;SDS011;63667;49.046;8.468;2023-12-20T08:28:39;13.17;;;7.63;;
142;SDS011;63667;49.046;8.468;2023-12-20T08:31:06;15.53;;;6.93;;
142;SDS011;63667;49.046;8.468;2023-12-20T08:33:40;18.73;;;7.30;;
142;SDS011;63667;49.046;8.468;2023-12-20T08:36:07;9.80;;;6.80;;
142;SDS011;63667;49.046;8.468;2023-12-20T08:38:35;14.87;;;6.83;;
142;SDS011;63667;49.046;8.468;2023-12-20T08:41:01;13.53;;;6.73;;
142;SDS011;63667;49.046;8.468;2023-12-20T08:43:39;9.83;;;5.47;;
142;SDS011;63667;49.046;8.468;2023-12-20T08:46:06;6.97;;;4.63;;
142;SDS011;63667;49.046;8.468;2023-12-20T08:48:35;7.70;;;5.00;;
142;SDS011;63667;49.046;8.468;2023-12-20T08:51:01;7.80;;;4.57;;
142;SDS011;63667;49.046;8.468;2023-12-20T08:53:28;8.13;;;4.70;;
142;SDS011;63667;49.046;8.468;2023-12-20T08:55:56;9.03;;;4.90;;
142;SDS011;63667;49.046;8.468;2023-12-20T08:58:26;6.40;;;4.23;;
142;SDS011;63667;49.046;8.468;2023-12-20T09:00:53;6.47;;;4.27;;
142;SDS011;63667;49.046;8.468;2023-12-20T09:03:19;18.73;;;4.20;;
142;SDS011;63667;49.046;8.468;2023-12-20T09:05:47;11.47;;;4.57;;
142;SDS011;63667;49.046;8.468;2023-12-20T09:08:14;9.37;;;4.50;;
142;SDS011;63667;49.046;8.468;2023-12-20T09:10:49;7.80;;;3.50;;
142;SDS011;63667;49.046;8.468;2023-12-20T09:13:16;13.20;;;4.50;;
142;SDS011;63667;49.046;8.468;2023-12-20T09:15:44;8.67;;;4.37;;
142;SDS011;63667;49.046;8.468;2023-12-20T09:18:12;7.20;;;3.90;;
142;SDS011;63667;49.046;8.468;2023-12-20T09:20:39;8.60;;;4.70;;
142;SDS011;63667;49.046;8.468;2023-12-20T09:23:07;11.17;;;3.60;;
142;SDS011;63667;49.046;8.468;2023-12-20T09:25:35;21.83;;;4.60;;
142;SDS011;63667;49.046;8.468;2023-12-20T09:28:03;12.23;;;4.17;;
142;SDS011;63667;49.046;8.468;2023-12-20T09:30:31;7.60;;;3.67;;
142;SDS011;63667;49.046;8.468;2023-12-20T09:32:58;7.70;;;4.20;;
142;SDS011;63667;49.046;8.468;2023-12-20T09:35:26;7.83;;;3.90;;
142;SDS011;63667;49.046;8.468;2023-12-20T09:37:53;8.23;;;3.70;;
142;SDS011;63667;49.046;8.468;2023-12-20T09:40:21;9.83;;;4.43;;
142;SDS011;63667;49.046;8.468;2023-12-20T09:43:31;7.03;;;3.80;;
142;SDS011;63667;49.046;8.468;2023-12-20T09:45:39;14.10;;;4.00;;
142;SDS011;63667;49.046;8.468;2023-12-20T09:48:08;9.73;;;3.90;;
142;SDS011;63667;49.046;8.468;2023-12-20T09:50:38;11.63;;;3.70;;
142;SDS011;63667;49.046;8.468;2023-12-20T09:53:05;6.30;;;3.40;;
142;SDS011;63667;49.046;8.468;2023-12-20T09:55:35;9.30;;;4.40;;
142;SDS011;63667;49.046;8.468;2023-12-20T09:58:03;8.37;;;4.60;;
142;SDS011;63667;49.046;8.468;2023-12-20T10:00:32;12.60;;;4.30;;
142;SDS011;63667;49.046;8.468;2023-12-20T10:03:00;10.50;;;3.93;;
142;SDS011;63667;49.046;8.468;2023-12-20T10:05:31;11.40;;;4.03;;
142;SDS011;63667;49.046;8.468;2023-12-20T10:07:59;11.50;;;4.67;;
142;SDS011;63667;49.046;8.468;2023-12-20T10:10:26;11.63;;;4.13;;
142;SDS011;63667;49.046;8.468;2023-12-20T10:15:29;6.50;;;3.70;;
142;SDS011;63667;49.046;8.468;2023-12-20T10:17:58;10.63;;;3.80;;
142;SDS011;63667;49.046;8.468;2023-12-20T10:20:26;6.80;;;3.93;;
142;SDS011;63667;49.046;8.468;2023-12-20T10:22:55;8.90;;;4.10;;
142;SDS011;63667;49.046;8.468;2023-12-20T10:25:22;8.20;;;3.70;;
142;SDS011;63667;49.046;8.468;2023-12-20T10:27:49;8.40;;;4.40;;
142;SDS011;63667;49.046;8.468;2023-12-20T10:30:17;7.27;;;3.50;;
142;SDS011;63667;49.046;8.468;2023-12-20T10:32:44;8.60;;;4.17;;
142;SDS011;63667;49.046;8.468;2023-12-20T10:35:13;7.63;;;4.23;;
142;SDS011;63667;49.046;8.468;2023-12-20T10:37:41;12.17;;;4.43;;
142;SDS011;63667;49.046;8.468;2023-12-20T10:40:09;6.60;;;3.43;;
142;SDS011;63667;49.046;8.468;2023-12-20T10:42:37;14.73;;;4.97;;
142;SDS011;63667;49.046;8.468;2023-12-20T10:45:06;12.27;;;3.40;;
142;SDS011;63667;49.046;8.468;2023-12-20T10:47:32;10.00;;;4.77;;
142;SDS011;63667;49.046;8.468;2023-12-20T10:49:59;8.40;;;4.30;;
142;SDS011;63667;49.046;8.468;2023-12-20T10:52:27;7.20;;;4.27;;
142;SDS011;63667;49.046;8.468;2023-12-20T10:54:55;6.17;;;4.00;;
142;SDS011;63667;49.046;8.468;2023-12-20T10:57:22;13.03;;;4.70;;
142;SDS011;63667;49.046;8.468;2023-12-20T10:59:50;15.80;;;5.23;;
142;SDS011;63667;49.046;8.468;2023-12-20T11:02:21;8.87;;;4.70;;
142;SDS011;63667;49.046;8.468;2023-12-20T11:07:43;13.80;;;5.10;;
142;SDS011;63667;49.046;8.468;2023-12-20T11:10:13;7.40;;;4.43;;
142;SDS011;63667;49.046;8.468;2023-12-20T11:12:52;14.57;;;5.70;;
142;SDS011;63667;49.046;8.468;2023-12-20T11:15:19;10.57;;;3.83;;
142;SDS011;63667;49.046;8.468;2023-12-20T11:17:54;9.60;;;5.03;;
142;SDS011;63667;49.046;8.468;2023-12-20T11:20:23;14.73;;;4.90;;
142;SDS011;63667;49.046;8.468;2023-12-20T11:22:53;9.67;;;4.30;;
142;SDS011;63667;49.046;8.468;2023-12-20T11:25:22;11.10;;;5.10;;
142;SDS011;63667;49.046;8.468;2023-12-20T11:28:11;12.13;;;4.70;;
142;SDS011;63667;49.046;8.468;2023-12-20T11:30:58;12.33;;;5.83;;
142;SDS011;63667;49.046;8.468;2023-12-20T11:33:26;12.00;;;4.87;;
142;SDS011;63667;49.046;8.468;2023-12-20T11:35:55;15.07;;;5.57;;
142;SDS011;63667;49.046;8.468;2023-12-20T11:38:22;10.60;;;5.03;;
142;SDS011;63667;49.046;8.468;2023-12-20T11:40:50;11.90;;;5.57;;
142;SDS011;63667;49.046;8.468;2023-12-20T11:43:38;10.40;;;4.93;;
142;SDS011;63667;49.046;8.468;2023-12-20T11:46:08;6.57;;;4.30;;
142;SDS011;63667;49.046;8.468;2023-12-20T11:48:37;13.40;;;4.43;;
142;SDS011;63667;49.046;8.468;2023-12-20T11:51:10;7.60;;;4.30;;
142;SDS011;63667;49.046;8.468;2023-12-20T11:53:37;14.87;;;5.40;;
142;SDS011;63667;49.046;8.468;2023-12-20T11:56:05;15.63;;;4.97;;
142;SDS011;63667;49.046;8.468;2023-12-20T11:58:34;20.97;;;5.60;;
142;SDS011;63667;49.046;8.468;2023-12-20T12:01:01;15.73;;;6.10;;
142;SDS011;63667;49.046;8.468;2023-12-20T12:03:30;11.50;;;5.50;;
142;SDS011;63667;49.046;8.468;2023-12-20T12:05:58;21.50;;;4.90;;
142;SDS011;63667;49.046;8.468;2023-12-20T12:08:26;9.60;;;4.10;;
142;SDS011;63667;49.046;8.468;2023-12-20T12:10:54;16.60;;;4.93;;
142;SDS011;63667;49.046;8.468;2023-12-20T12:13:20;10.47;;;5.70;;
142;SDS011;63667;49.046;8.468;2023-12-20T12:15:48;16.13;;;5.13;;
142;SDS011;63667;49.046;8.468;2023-12-20T12:18:16;9.60;;;4.73;;
142;SDS011;63667;49.046;8.468;2023-12-20T12:20:44;15.90;;;5.57;;
142;SDS011;63667;49.046;8.468;2023-12-20T12:23:11;10.80;;;4.80;;
142;SDS011;63667;49.046;8.468;2023-12-20T12:25:39;17.40;;;4.57;;
142;SDS011;63667;49.046;8.468;2023-12-20T12:28:07;14.30;;;5.73;;
142;SDS011;63667;49.046;8.468;2023-12-20T12:30:34;9.33;;;4.60;;
142;SDS011;63667;49.046;8.468;2023-12-20T12:33:02;15.40;;;5.63;;
142;SDS011;63667;49.046;8.468;2023-12-20T12:35:31;15.60;;;4.70;;
142;SDS011;63667;49.046;8.468;2023-12-20T12:37:58;15.43;;;5.30;;
142;SDS011;63667;49.046;8.468;2023-12-20T12:40:26;16.23;;;4.50;;
142;SDS011;63667;49.046;8.468;2023-12-20T12:42:52;11.50;;;4.90;;
142;SDS011;63667;49.046;8.468;2023-12-20T12:45:19;12.13;;;4.83;;
142;SDS011;63667;49.046;8.468;2023-12-20T12:47:45;13.57;;;4.20;;
142;SDS011;63667;49.046;8.468;2023-12-20T12:50:12;10.93;;;5.10;;
142;SDS011;63667;49.046;8.468;2023-12-20T12:52:38;14.27;;;4.53;;
142;SDS011;63667;49.046;8.468;2023-12-20T12:55:05;15.53;;;5.30;;
142;SDS011;63667;49.046;8.468;2023-12-20T12:57:33;10.57;;;5.17;;
142;SDS011;63667;49.046;8.468;2023-12-20T13:00:00;14.27;;;5.20;;
142;SDS011;63667;49.046;8.468;2023-12-20T13:02:26;8.10;;;4.20;;
142;SDS011;63667;49.046;8.468;2023-12-20T13:04:52;10.20;;;4.37;;
142;SDS011;63667;49.046;8.468;2023-12-20T13:07:19;9.77;;;4.70;;
142;SDS011;63667;49.046;8.468;2023-12-20T13:09:48;12.20;;;5.17;;
142;SDS011;63667;49.046;8.468;2023-12-20T13:12:15;13.43;;;4.30;;
142;SDS011;63667;49.046;8.468;2023-12-20T13:14:42;13.70;;;4.80;;
142;SDS011;63667;49.046;8.468;2023-12-20T13:17:10;12.67;;;4.60;;
142;SDS011;63667;49.046;8.468;2023-12-20T13:19:38;10.93;;;4.37;;
142;SDS011;63667;49.046;8.468;2023-12-20T13:22:08;11.30;;;3.90;;
142;SDS011;63667;49.046;8.468;2023-12-20T13:24:36;14.03;;;4.07;;
142;SDS011;63667;49.046;8.468;2023-12-20T13:27:04;10.80;;;4.43;;
142;SDS011;63667;49.046;8.468;2023-12-20T13:29:32;16.77;;;4.50;;
142;SDS011;63667;49.046;8.468;2023-12-20T13:31:59;24.30;;;5.00;;
142;SDS011;63667;49.046;8.468;2023-12-20T13:34:26;12.10;;;4.50;;
142;SDS011;63667;49.046;8.468;2023-12-20T13:36:52;8.60;;;4.20;;
142;SDS011;63667;49.046;8.468;2023-12-20T13:39:19;12.77;;;3.77;;
142;SDS011;63667;49.046;8.468;2023-12-20T13:41:46;14.93;;;4.40;;
142;SDS011;63667;49.046;8.468;2023-12-20T13:44:13;7.53;;;4.30;;
142;SDS011;63667;49.046;8.468;2023-12-20T13:46:40;14.10;;;3.93;;
142;SDS011;63667;49.046;8.468;2023-12-20T13:49:07;11.83;;;4.23;;
142;SDS011;63667;49.046;8.468;2023-12-20T13:51:33;14.30;;;4.20;;
142;SDS011;63667;49.046;8.468;2023-12-20T13:54:00;27.23;;;5.33;;
142;SDS011;63667;49.046;8.468;2023-12-20T13:56:26;15.20;;;4.70;;
142;SDS011;63667;49.046;8.468;2023-12-20T13:58:53;12.60;;;4.53;;
142;SDS011;63667;49.046;8.468;2023-12-20T14:01:20;13.97;;;4.60;;
142;SDS011;63667;49.046;8.468;2023-12-20T14:03:47;10.20;;;4.90;;
142;SDS011;63667;49.046;8.468;2023-12-20T14:06:16;8.33;;;4.07;;
142;SDS011;63667;49.046;8.468;2023-12-20T14:08:43;17.63;;;4.23;;
142;SDS011;63667;49.046;8.468;2023-12-20T14:11:11;7.17;;;4.20;;
142;SDS011;63667;49.046;8.468;2023-12-20T14:13:41;6.60;;;4.10;;
142;SDS011;63667;49.046;8.468;2023-12-20T14:16:09;11.30;;;4.40;;
142;SDS011;63667;49.046;8.468;2023-12-20T14:18:36;9.70;;;5.23;;
142;SDS011;63667;49.046;8.468;2023-12-20T14:21:05;10.83;;;4.43;;
142;SDS011;63667;49.046;8.468;2023-12-20T14:23:33;17.60;;;4.80;;
142;SDS011;63667;49.046;8.468;2023-12-20T14:25:59;9.03;;;3.97;;
142;SDS011;63667;49.046;8.468;2023-12-20T14:28:27;13.57;;;4.30;;
142;SDS011;63667;49.046;8.468;2023-12-20T14:30:54;17.20;;;4.53;;
142;SDS011;63667;49.046;8.468;2023-12-20T14:33:22;11.10;;;4.80;;
142;SDS011;63667;49.046;8.468;2023-12-20T14:35:49;6.60;;;3.93;;
142;SDS011;63667;49.046;8.468;2023-12-20T14:38:17;15.67;;;4.80;;
142;SDS011;63667;49.046;8.468;2023-12-20T14:40:43;15.30;;;4.37;;
142;SDS011;63667;49.046;8.468;2023-12-20T14:43:10;9.73;;;4.17;;
142;SDS011;63667;49.046;8.468;2023-12-20T14:45:37;12.73;;;4.60;;
142;SDS011;63667;49.046;8.468;2023-12-20T14:48:03;6.20;;;3.93;;
142;SDS011;63667;49.046;8.468;2023-12-20T14:50:30;15.90;;;4.73;;
142;SDS011;63667;49.046;8.468;2023-12-20T14:52:56;9.23;;;4.13;;
142;SDS011;63667;49.046;8.468;2023-12-20T14:55:23;11.50;;;4.40;;
142;SDS011;63667;49.046;8.468;2023-12-20T14:57:52;12.27;;;4.13;;
142;SDS011;63667;49.046;8.468;2023-12-20T15:00:19;11.67;;;4.30;;
142;SDS011;63667;49.046;8.468;2023-12-20T15:02:46;11.97;;;4.33;;
142;SDS011;63667;49.046;8.468;2023-12-20T15:05:12;23.10;;;5.10;;
142;SDS011;63667;49.046;8.468;2023-12-20T15:07:40;15.53;;;4.50;;
142;SDS011;63667;49.046;8.468;2023-12-20T15:10:07;11.93;;;4.13;;
142;SDS011;63667;49.046;8.468;2023-12-20T15:12:33;10.23;;;4.20;;
142;SDS011;63667;49.046;8.468;2023-12-20T15:15:00;13.93;;;5.67;;